New Millport, PA

12:43 AM EDT on September 02, 2015 (GMT -0400)
Holly Terrace | | Change Station
CLOSE
Current Station
Personal Weather Station
Location: Falls Creek, PA
Elevation: 1473 ft
Nearby Weather Stations

Elev 1473 ft 41.14 °N, 78.81 °W | Updated 10 seconds ago

Clear
Clear
61.7 °F
Feels Like 61.7 °F
N
0.0
Wind Variable Wind from NW
Gusts 0.0 mph

Today
High -- | Low -- °F
--% Chance of Precip.
Yesterday
High -- | Low -- °F
Precip. -- in
6:41 AM 7:45 PM
Waning Gibbous, 83% visible
Pressure 30.11 in
Visibility 7.0 miles
Clouds Clear
Dew Point 61 °F
Humidity 98%
Rainfall 0.00 in
Snow Depth Not available.
UV 0 out of 12
Pollen 10.20 out of 12
Air Quality Not available.
Flu Activity Not available.
METAR KFIG 020354Z AUTO 00000KT 7SM -RA CLR 19/17 A3014 RMK AO2 RAB0257E33B49 SLP196 P0000 T01890167
Pressure 30.11 in
Visibility 7.0 miles
Clouds Clear
Dew Point 61 °F
Humidity 98%
Rainfall 0.00 in
Snow Depth Not available.
UV 0 out of 12
Pollen 10.20 out of 12
Air Quality Not available.
Flu Activity Not available.
METAR KFIG 020354Z AUTO 00000KT 7SM -RA CLR 19/17 A3014 RMK AO2 RAB0257E33B49 SLP196 P0000 T01890167

10-Day Weather Forecast

×

Almanac

Astronomy

Sep. 02, 2015 Rise Set
Actual Time
Civil Twilight
Nautical Twilight
Astronomical Twilight
Moon
Length of Visible Light
Length of Day
Tomorrow will be .
, % of the Moon is Illuminated

Today's Extremes

State Highs State Lows

Community

WunderPhotos

Upload Photos

1,851,704 photos uploaded!

WunderBlogs® & News

Nearby

Air Quality

  Air Quality AQ Index Pollutant
Not available.

Snow Depth

Station Depth Elevation

Earthquake Activity

City Distance Mag. Time & Date
Minimum magnitude displayed is 2.5.

Coastal Water Temperatures

Place Temperature

Stations

Nearby Weather Stations

Station Location Temp. Windchill Dew Point Humidity Wind Precip. Elev Updated Type